sensor_id;sensor_type;location;lat;lon;timestamp;pressure;altitude;pressure_sealevel;temperature;humidity
76653;BME280;65563;45.970;12.680;2023-02-04T00:00:43;101687.34;;;2.24;78.73
76653;BME280;65563;45.970;12.680;2023-02-04T00:01:43;101683.56;;;2.28;79.10
76653;BME280;65563;45.970;12.680;2023-02-04T00:02:43;101669.22;;;2.21;79.16
76653;BME280;65563;45.970;12.680;2023-02-04T00:03:43;101669.91;;;2.11;79.69
76653;BME280;65563;45.970;12.680;2023-02-04T00:04:43;101667.13;;;2.26;79.40
76653;BME280;65563;45.970;12.680;2023-02-04T00:05:44;101673.03;;;2.17;78.88
76653;BME280;65563;45.970;12.680;2023-02-04T00:06:44;101658.53;;;2.24;79.55
76653;BME280;65563;45.970;12.680;2023-02-04T00:07:44;101654.81;;;2.15;79.35
76653;BME280;65563;45.970;12.680;2023-02-04T00:08:44;101647.34;;;2.22;79.27
76653;BME280;65563;45.970;12.680;2023-02-04T00:09:44;101648.75;;;2.14;79.27
76653;BME280;65563;45.970;12.680;2023-02-04T00:10:45;101647.50;;;2.07;79.88
76653;BME280;65563;45.970;12.680;2023-02-04T00:11:45;101657.81;;;2.22;80.17
76653;BME280;65563;45.970;12.680;2023-02-04T00:12:45;101665.00;;;2.31;79.79
76653;BME280;65563;45.970;12.680;2023-02-04T00:13:45;101660.38;;;2.34;79.05
76653;BME280;65563;45.970;12.680;2023-02-04T00:14:45;101664.59;;;2.24;79.32
76653;BME280;65563;45.970;12.680;2023-02-04T00:15:45;101656.88;;;2.23;79.10
76653;BME280;65563;45.970;12.680;2023-02-04T00:16:46;101640.41;;;2.21;79.73
76653;BME280;65563;45.970;12.680;2023-02-04T00:17:46;101644.25;;;2.28;79.57
76653;BME280;65563;45.970;12.680;2023-02-04T00:18:46;101640.56;;;2.30;79.28
76653;BME280;65563;45.970;12.680;2023-02-04T00:19:46;101637.78;;;2.21;79.72
76653;BME280;65563;45.970;12.680;2023-02-04T00:20:46;101640.91;;;2.26;79.66
76653;BME280;65563;45.970;12.680;2023-02-04T00:21:47;101641.19;;;2.10;79.96
76653;BME280;65563;45.970;12.680;2023-02-04T00:22:47;101653.81;;;2.05;80.03
76653;BME280;65563;45.970;12.680;2023-02-04T00:23:47;101651.00;;;1.95;80.74
76653;BME280;65563;45.970;12.680;2023-02-04T00:24:47;101640.97;;;2.13;80.25
76653;BME280;65563;45.970;12.680;2023-02-04T00:25:47;101647.44;;;2.20;79.61
76653;BME280;65563;45.970;12.680;2023-02-04T00:26:47;101640.53;;;2.19;79.71
76653;BME280;65563;45.970;12.680;2023-02-04T00:27:48;101636.94;;;2.20;79.90
76653;BME280;65563;45.970;12.680;2023-02-04T00:28:48;101642.75;;;2.12;79.72
76653;BME280;65563;45.970;12.680;2023-02-04T00:29:48;101649.78;;;2.12;79.86
76653;BME280;65563;45.970;12.680;2023-02-04T00:30:48;101649.34;;;2.18;79.57
76653;BME280;65563;45.970;12.680;2023-02-04T00:31:48;101656.28;;;2.06;80.15
76653;BME280;65563;45.970;12.680;2023-02-04T00:32:48;101649.56;;;2.15;79.81
76653;BME280;65563;45.970;12.680;2023-02-04T00:33:49;101648.44;;;2.06;80.11
76653;BME280;65563;45.970;12.680;2023-02-04T00:34:49;101648.34;;;2.08;79.58
76653;BME280;65563;45.970;12.680;2023-02-04T00:35:49;101650.41;;;2.15;79.36
76653;BME280;65563;45.970;12.680;2023-02-04T00:36:49;101642.81;;;2.24;78.74
76653;BME280;65563;45.970;12.680;2023-02-04T00:37:50;101643.97;;;2.20;78.80
76653;BME280;65563;45.970;12.680;2023-02-04T00:38:50;101649.34;;;2.18;78.96
76653;BME280;65563;45.970;12.680;2023-02-04T00:39:50;101652.59;;;2.22;78.95
76653;BME280;65563;45.970;12.680;2023-02-04T00:40:50;101656.88;;;2.23;79.34
76653;BME280;65563;45.970;12.680;2023-02-04T00:41:50;101644.09;;;2.18;78.53
76653;BME280;65563;45.970;12.680;2023-02-04T00:42:51;101632.31;;;2.24;78.30
76653;BME280;65563;45.970;12.680;2023-02-04T00:43:51;101627.78;;;2.14;78.81
76653;BME280;65563;45.970;12.680;2023-02-04T00:44:51;101622.28;;;2.18;78.42
76653;BME280;65563;45.970;12.680;2023-02-04T00:45:51;101618.75;;;2.19;79.06
76653;BME280;65563;45.970;12.680;2023-02-04T00:46:51;101625.38;;;2.11;78.65
76653;BME280;65563;45.970;12.680;2023-02-04T00:47:51;101633.00;;;2.14;78.39
76653;BME280;65563;45.970;12.680;2023-02-04T00:48:52;101636.91;;;2.09;79.01
76653;BME280;65563;45.970;12.680;2023-02-04T00:49:52;101634.47;;;2.19;78.96
76653;BME280;65563;45.970;12.680;2023-02-04T00:50:52;101637.03;;;2.07;78.70
76653;BME280;65563;45.970;12.680;2023-02-04T00:51:52;101639.66;;;2.07;78.77
76653;BME280;65563;45.970;12.680;2023-02-04T00:52:52;101628.31;;;2.07;78.71
76653;BME280;65563;45.970;12.680;2023-02-04T00:53:53;101624.53;;;2.11;78.64
76653;BME280;65563;45.970;12.680;2023-02-04T00:54:53;101626.56;;;2.07;78.20
76653;BME280;65563;45.970;12.680;2023-02-04T00:55:53;101627.78;;;2.14;78.48
76653;BME280;65563;45.970;12.680;2023-02-04T00:56:53;101624.63;;;2.09;78.55
76653;BME280;65563;45.970;12.680;2023-02-04T00:57:53;101617.97;;;2.05;78.44
76653;BME280;65563;45.970;12.680;2023-02-04T00:58:53;101621.34;;;1.95;79.02
76653;BME280;65563;45.970;12.680;2023-02-04T00:59:54;101619.34;;;1.98;78.67
76653;BME280;65563;45.970;12.680;2023-02-04T01:00:54;101622.19;;;1.95;79.13
76653;BME280;65563;45.970;12.680;2023-02-04T01:01:54;101642.19;;;1.96;79.08
76653;BME280;65563;45.970;12.680;2023-02-04T01:02:54;101641.47;;;1.94;78.63
76653;BME280;65563;45.970;12.680;2023-02-04T01:03:54;101639.28;;;1.88;79.13
76653;BME280;65563;45.970;12.680;2023-02-04T01:04:54;101635.84;;;1.87;79.02
76653;BME280;65563;45.970;12.680;2023-02-04T01:05:55;101627.25;;;1.85;78.81
76653;BME280;65563;45.970;12.680;2023-02-04T01:06:55;101623.19;;;1.81;79.31
76653;BME280;65563;45.970;12.680;2023-02-04T01:07:55;101626.19;;;1.88;78.84
76653;BME280;65563;45.970;12.680;2023-02-04T01:08:55;101621.47;;;1.93;79.57
76653;BME280;65563;45.970;12.680;2023-02-04T01:09:55;101630.00;;;1.84;79.24
76653;BME280;65563;45.970;12.680;2023-02-04T01:10:56;101627.72;;;1.79;79.52
76653;BME280;65563;45.970;12.680;2023-02-04T01:11:56;101620.22;;;1.86;79.82
76653;BME280;65563;45.970;12.680;2023-02-04T01:12:56;101619.91;;;1.90;79.24
76653;BME280;65563;45.970;12.680;2023-02-04T01:13:56;101625.03;;;1.92;79.19
76653;BME280;65563;45.970;12.680;2023-02-04T01:14:56;101629.44;;;1.91;78.98
76653;BME280;65563;45.970;12.680;2023-02-04T01:15:57;101640.66;;;1.94;79.86
76653;BME280;65563;45.970;12.680;2023-02-04T01:16:57;101632.78;;;1.94;79.31
76653;BME280;65563;45.970;12.680;2023-02-04T01:17:57;101639.81;;;1.93;78.60
76653;BME280;65563;45.970;12.680;2023-02-04T01:18:57;101650.59;;;1.88;79.40
76653;BME280;65563;45.970;12.680;2023-02-04T01:19:57;101654.38;;;1.84;79.11
76653;BME280;65563;45.970;12.680;2023-02-04T01:20:58;101657.22;;;1.81;79.19
76653;BME280;65563;45.970;12.680;2023-02-04T01:21:58;101653.50;;;1.73;79.21
76653;BME280;65563;45.970;12.680;2023-02-04T01:22:58;101653.38;;;1.61;79.62
76653;BME280;65563;45.970;12.680;2023-02-04T01:23:58;101654.09;;;1.76;79.83
76653;BME280;65563;45.970;12.680;2023-02-04T01:24:58;101654.00;;;1.78;79.56
76653;BME280;65563;45.970;12.680;2023-02-04T01:25:58;101662.19;;;1.73;79.90
76653;BME280;65563;45.970;12.680;2023-02-04T01:26:59;101655.28;;;1.72;80.41
76653;BME280;65563;45.970;12.680;2023-02-04T01:27:59;101640.72;;;1.68;80.91
76653;BME280;65563;45.970;12.680;2023-02-04T01:28:59;101647.31;;;1.74;80.64
76653;BME280;65563;45.970;12.680;2023-02-04T01:29:59;101643.25;;;1.57;80.91
76653;BME280;65563;45.970;12.680;2023-02-04T01:30:59;101646.41;;;1.49;81.38
76653;BME280;65563;45.970;12.680;2023-02-04T01:31:59;101653.44;;;1.49;81.61
76653;BME280;65563;45.970;12.680;2023-02-04T01:33:00;101657.50;;;1.53;82.39
76653;BME280;65563;45.970;12.680;2023-02-04T01:34:00;101659.91;;;1.69;81.56
76653;BME280;65563;45.970;12.680;2023-02-04T01:35:00;101649.63;;;1.65;81.58
76653;BME280;65563;45.970;12.680;2023-02-04T01:36:00;101652.13;;;1.67;81.08
76653;BME280;65563;45.970;12.680;2023-02-04T01:37:00;101641.59;;;1.56;81.79
76653;BME280;65563;45.970;12.680;2023-02-04T01:38:00;101624.94;;;1.57;82.05
76653;BME280;65563;45.970;12.680;2023-02-04T01:39:01;101632.22;;;1.40;82.73
76653;BME280;65563;45.970;12.680;2023-02-04T01:40:01;101634.41;;;1.34;82.82
76653;BME280;65563;45.970;12.680;2023-02-04T01:41:01;101646.84;;;1.43;82.94
76653;BME280;65563;45.970;12.680;2023-02-04T01:42:02;101645.25;;;1.53;83.18
76653;BME280;65563;45.970;12.680;2023-02-04T01:43:02;101646.53;;;1.48;83.14
76653;BME280;65563;45.970;12.680;2023-02-04T01:44:02;101646.41;;;1.49;82.67
76653;BME280;65563;45.970;12.680;2023-02-04T01:45:03;101638.22;;;1.66;82.59
76653;BME280;65563;45.970;12.680;2023-02-04T01:46:04;101625.53;;;1.73;82.31
76653;BME280;65563;45.970;12.680;2023-02-04T01:47:05;101619.66;;;1.70;81.62
76653;BME280;65563;45.970;12.680;2023-02-04T01:48:05;101615.53;;;1.78;81.59
76653;BME280;65563;45.970;12.680;2023-02-04T01:49:06;101622.56;;;1.78;81.27
76653;BME280;65563;45.970;12.680;2023-02-04T01:50:06;101625.19;;;1.78;81.57
76653;BME280;65563;45.970;12.680;2023-02-04T01:51:10;101628.84;;;1.75;81.29
76653;BME280;65563;45.970;12.680;2023-02-04T01:52:11;101633.09;;;1.89;81.16
76653;BME280;65563;45.970;12.680;2023-02-04T01:53:11;101631.88;;;1.82;80.44
76653;BME280;65563;45.970;12.680;2023-02-04T01:54:12;101638.50;;;1.75;81.08
76653;BME280;65563;45.970;12.680;2023-02-04T01:55:14;101637.09;;;1.82;80.75
76653;BME280;65563;45.970;12.680;2023-02-04T01:57:15;101648.69;;;1.66;81.32
76653;BME280;65563;45.970;12.680;2023-02-04T01:58:15;101648.53;;;1.81;80.72
76653;BME280;65563;45.970;12.680;2023-02-04T01:59:16;101647.78;;;1.79;80.96
76653;BME280;65563;45.970;12.680;2023-02-04T02:00:27;101656.09;;;1.73;81.32
76653;BME280;65563;45.970;12.680;2023-02-04T02:01:34;101662.88;;;1.75;81.35
76653;BME280;65563;45.970;12.680;2023-02-04T02:02:38;101663.66;;;1.64;81.83
76653;BME280;65563;45.970;12.680;2023-02-04T02:03:39;101660.19;;;1.64;81.76
76653;BME280;65563;45.970;12.680;2023-02-04T02:04:39;101663.88;;;1.61;82.12
76653;BME280;65563;45.970;12.680;2023-02-04T02:06:40;101663.56;;;1.66;81.62
76653;BME280;65563;45.970;12.680;2023-02-04T02:07:41;101665.56;;;1.62;81.61
76653;BME280;65563;45.970;12.680;2023-02-04T02:08:42;101669.00;;;1.63;81.36
76653;BME280;65563;45.970;12.680;2023-02-04T02:09:42;101680.03;;;1.55;81.40
76653;BME280;65563;45.970;12.680;2023-02-04T02:10:43;101676.75;;;1.64;81.20
76653;BME280;65563;45.970;12.680;2023-02-04T02:11:44;101676.03;;;1.62;81.10
76653;BME280;65563;45.970;12.680;2023-02-04T02:12:45;101671.09;;;1.58;81.25
76653;BME280;65563;45.970;12.680;2023-02-04T02:13:45;101681.25;;;1.62;81.23
76653;BME280;65563;45.970;12.680;2023-02-04T02:14:45;101681.47;;;1.59;81.08
76653;BME280;65563;45.970;12.680;2023-02-04T02:15:45;101669.00;;;1.63;80.67
76653;BME280;65563;45.970;12.680;2023-02-04T02:16:46;101664.19;;;1.57;81.43
76653;BME280;65563;45.970;12.680;2023-02-04T02:17:46;101663.16;;;1.59;81.28
76653;BME280;65563;45.970;12.680;2023-02-04T02:18:46;101661.69;;;1.55;81.44
76653;BME280;65563;45.970;12.680;2023-02-04T02:19:47;101671.97;;;1.58;81.39
76653;BME280;65563;45.970;12.680;2023-02-04T02:20:47;101666.94;;;1.55;81.66
76653;BME280;65563;45.970;12.680;2023-02-04T02:21:50;101662.63;;;1.54;81.17
76653;BME280;65563;45.970;12.680;2023-02-04T02:23:57;101658.75;;;1.47;81.58
76653;BME280;65563;45.970;12.680;2023-02-04T02:24:57;101660.13;;;1.53;81.80
76653;BME280;65563;45.970;12.680;2023-02-04T02:25:57;101655.94;;;1.50;81.80
76653;BME280;65563;45.970;12.680;2023-02-04T02:26:59;101644.28;;;1.54;81.59
76653;BME280;65563;45.970;12.680;2023-02-04T02:28:00;101641.03;;;1.63;81.32
76653;BME280;65563;45.970;12.680;2023-02-04T02:29:02;101632.16;;;1.66;81.05
76653;BME280;65563;45.970;12.680;2023-02-04T02:30:02;101635.19;;;1.47;81.08
76653;BME280;65563;45.970;12.680;2023-02-04T02:31:02;101645.59;;;1.49;81.33
76653;BME280;65563;45.970;12.680;2023-02-04T02:32:02;101649.31;;;1.57;81.04
76653;BME280;65563;45.970;12.680;2023-02-04T02:33:03;101655.09;;;1.50;81.55
76653;BME280;65563;45.970;12.680;2023-02-04T02:34:06;101655.28;;;1.59;80.41
76653;BME280;65563;45.970;12.680;2023-02-04T02:35:06;101646.50;;;1.60;80.01
76653;BME280;65563;45.970;12.680;2023-02-04T02:36:07;101652.56;;;1.61;79.96
76653;BME280;65563;45.970;12.680;2023-02-04T02:37:07;101650.78;;;1.61;79.74
76653;BME280;65563;45.970;12.680;2023-02-04T02:38:11;101649.44;;;1.43;79.83
76653;BME280;65563;45.970;12.680;2023-02-04T02:39:11;101656.47;;;1.30;80.75
76653;BME280;65563;45.970;12.680;2023-02-04T02:40:12;101661.28;;;1.36;80.51
76653;BME280;65563;45.970;12.680;2023-02-04T02:41:13;101653.97;;;1.41;80.58
76653;BME280;65563;45.970;12.680;2023-02-04T02:42:14;101637.03;;;1.34;79.97
76653;BME280;65563;45.970;12.680;2023-02-04T02:43:16;101628.63;;;1.41;80.14
76653;BME280;65563;45.970;12.680;2023-02-04T02:44:17;101632.84;;;1.18;80.67
76653;BME280;65563;45.970;12.680;2023-02-04T02:45:27;101627.81;;;1.15;80.76
76653;BME280;65563;45.970;12.680;2023-02-04T02:46:29;101637.25;;;1.31;80.84
76653;BME280;65563;45.970;12.680;2023-02-04T02:47:29;101654.06;;;1.39;81.01
76653;BME280;65563;45.970;12.680;2023-02-04T02:48:29;101655.63;;;1.42;80.56
76653;BME280;65563;45.970;12.680;2023-02-04T02:49:30;101656.69;;;1.39;80.14
76653;BME280;65563;45.970;12.680;2023-02-04T02:50:31;101649.56;;;1.29;80.28
76653;BME280;65563;45.970;12.680;2023-02-04T02:51:32;101647.16;;;1.26;80.57
76653;BME280;65563;45.970;12.680;2023-02-04T02:52:32;101644.56;;;1.26;81.16
76653;BME280;65563;45.970;12.680;2023-02-04T02:53:32;101632.63;;;1.34;81.12
76653;BME280;65563;45.970;12.680;2023-02-04T02:54:33;101637.66;;;1.25;81.77
76653;BME280;65563;45.970;12.680;2023-02-04T02:55:33;101644.13;;;1.32;81.57
76653;BME280;65563;45.970;12.680;2023-02-04T02:56:33;101657.63;;;1.38;81.39
76653;BME280;65563;45.970;12.680;2023-02-04T02:57:33;101665.28;;;1.41;81.05
76653;BME280;65563;45.970;12.680;2023-02-04T02:58:33;101654.91;;;1.40;81.86
76653;BME280;65563;45.970;12.680;2023-02-04T02:59:34;101658.78;;;1.34;81.57
76653;BME280;65563;45.970;12.680;2023-02-04T03:00:34;101657.44;;;1.41;81.26
76653;BME280;65563;45.970;12.680;2023-02-04T03:01:34;101646.13;;;1.41;81.30
76653;BME280;65563;45.970;12.680;2023-02-04T03:02:34;101641.81;;;1.40;81.78
76653;BME280;65563;45.970;12.680;2023-02-04T03:03:39;101644.53;;;1.38;81.09
76653;BME280;65563;45.970;12.680;2023-02-04T03:04:41;101640.47;;;1.34;81.34
76653;BME280;65563;45.970;12.680;2023-02-04T03:05:43;101643.31;;;1.31;81.22
76653;BME280;65563;45.970;12.680;2023-02-04T03:06:43;101639.09;;;1.29;81.85
76653;BME280;65563;45.970;12.680;2023-02-04T03:07:44;101641.22;;;1.24;81.74
76653;BME280;65563;45.970;12.680;2023-02-04T03:08:44;101640.78;;;1.30;81.88
76653;BME280;65563;45.970;12.680;2023-02-04T03:09:45;101650.81;;;1.36;81.79
76653;BME280;65563;45.970;12.680;2023-02-04T03:10:45;101663.63;;;1.40;81.88
76653;BME280;65563;45.970;12.680;2023-02-04T03:11:46;101661.81;;;1.41;82.08
76653;BME280;65563;45.970;12.680;2023-02-04T03:12:47;101666.94;;;1.42;81.79
76653;BME280;65563;45.970;12.680;2023-02-04T03:13:47;101657.31;;;1.43;82.19
76653;BME280;65563;45.970;12.680;2023-02-04T03:14:48;101652.69;;;1.47;81.64
76653;BME280;65563;45.970;12.680;2023-02-04T03:15:48;101653.97;;;1.41;81.12
76653;BME280;65563;45.970;12.680;2023-02-04T03:16:49;101649.78;;;1.38;81.61
76653;BME280;65563;45.970;12.680;2023-02-04T03:17:50;101647.91;;;1.40;81.47
76653;BME280;65563;45.970;12.680;2023-02-04T03:18:50;101638.69;;;1.48;81.53
76653;BME280;65563;45.970;12.680;2023-02-04T03:19:50;101643.19;;;1.46;81.93
76653;BME280;65563;45.970;12.680;2023-02-04T03:20:51;101652.47;;;1.50;81.95
76653;BME280;65563;45.970;12.680;2023-02-04T03:21:51;101664.19;;;1.57;82.55
76653;BME280;65563;45.970;12.680;2023-02-04T03:22:52;101670.06;;;1.60;82.47
76653;BME280;65563;45.970;12.680;2023-02-04T03:23:53;101677.81;;;1.62;82.70
76653;BME280;65563;45.970;12.680;2023-02-04T03:24:53;101683.06;;;1.62;82.91
76653;BME280;65563;45.970;12.680;2023-02-04T03:25:53;101690.50;;;1.55;82.63
76653;BME280;65563;45.970;12.680;2023-02-04T03:26:53;101685.13;;;1.57;82.45
76653;BME280;65563;45.970;12.680;2023-02-04T03:27:54;101665.66;;;1.61;82.67
76653;BME280;65563;45.970;12.680;2023-02-04T03:28:56;101661.03;;;1.64;83.52
76653;BME280;65563;45.970;12.680;2023-02-04T03:29:57;101655.72;;;1.53;83.57
76653;BME280;65563;45.970;12.680;2023-02-04T03:30:58;101655.50;;;1.56;83.62
76653;BME280;65563;45.970;12.680;2023-02-04T03:31:58;101669.50;;;1.68;83.62
76653;BME280;65563;45.970;12.680;2023-02-04T03:32:58;101669.50;;;1.68;83.80
76653;BME280;65563;45.970;12.680;2023-02-04T03:33:58;101677.97;;;1.72;83.79
76653;BME280;65563;45.970;12.680;2023-02-04T03:34:58;101682.50;;;1.70;83.45
76653;BME280;65563;45.970;12.680;2023-02-04T03:35:59;101678.50;;;1.77;83.32
76653;BME280;65563;45.970;12.680;2023-02-04T03:36:59;101674.66;;;1.70;83.41
76653;BME280;65563;45.970;12.680;2023-02-04T03:37:59;101667.28;;;1.75;82.86
76653;BME280;65563;45.970;12.680;2023-02-04T03:38:59;101669.00;;;1.76;82.71
76653;BME280;65563;45.970;12.680;2023-02-04T03:39:59;101670.03;;;1.73;83.46
76653;BME280;65563;45.970;12.680;2023-02-04T03:41:00;101678.50;;;1.77;83.28
76653;BME280;65563;45.970;12.680;2023-02-04T03:42:00;101686.88;;;1.82;83.46
76653;BME280;65563;45.970;12.680;2023-02-04T03:43:00;101688.56;;;1.83;83.19
76653;BME280;65563;45.970;12.680;2023-02-04T03:44:01;101696.41;;;1.83;83.07
76653;BME280;65563;45.970;12.680;2023-02-04T03:45:01;101696.50;;;1.81;82.73
76653;BME280;65563;45.970;12.680;2023-02-04T03:46:01;101688.31;;;1.86;82.78
76653;BME280;65563;45.970;12.680;2023-02-04T03:47:01;101672.94;;;1.81;83.84
76653;BME280;65563;45.970;12.680;2023-02-04T03:48:01;101667.28;;;1.75;84.18
76653;BME280;65563;45.970;12.680;2023-02-04T03:49:01;101669.19;;;1.73;84.39
76653;BME280;65563;45.970;12.680;2023-02-04T03:50:01;101676.53;;;1.67;84.49
76653;BME280;65563;45.970;12.680;2023-02-04T03:51:02;101680.19;;;1.78;84.19
76653;BME280;65563;45.970;12.680;2023-02-04T03:52:02;101687.38;;;1.87;84.22
76653;BME280;65563;45.970;12.680;2023-02-04T03:53:02;101689.78;;;1.90;83.94
76653;BME280;65563;45.970;12.680;2023-02-04T03:54:03;101691.13;;;1.96;83.19
76653;BME280;65563;45.970;12.680;2023-02-04T03:55:03;101677.09;;;1.97;83.37
76653;BME280;65563;45.970;12.680;2023-02-04T03:56:03;101679.38;;;2.01;82.90
76653;BME280;65563;45.970;12.680;2023-02-04T03:57:03;101663.88;;;1.98;82.45
76653;BME280;65563;45.970;12.680;2023-02-04T03:58:04;101670.56;;;2.02;82.82
76653;BME280;65563;45.970;12.680;2023-02-04T03:59:04;101666.72;;;1.95;83.16
76653;BME280;65563;45.970;12.680;2023-02-04T04:00:04;101672.72;;;1.84;82.92
76653;BME280;65563;45.970;12.680;2023-02-04T04:01:04;101679.97;;;1.81;83.40
76653;BME280;65563;45.970;12.680;2023-02-04T04:02:04;101679.19;;;1.91;83.61
76653;BME280;65563;45.970;12.680;2023-02-04T04:03:05;101684.09;;;1.96;83.56
76653;BME280;65563;45.970;12.680;2023-02-04T04:04:05;101683.59;;;1.91;83.46
76653;BME280;65563;45.970;12.680;2023-02-04T04:05:05;101674.34;;;1.98;83.06
76653;BME280;65563;45.970;12.680;2023-02-04T04:06:06;101657.69;;;1.99;83.16
76653;BME280;65563;45.970;12.680;2023-02-04T04:07:06;101665.00;;;1.83;83.40
76653;BME280;65563;45.970;12.680;2023-02-04T04:08:06;101665.00;;;1.83;83.45
76653;BME280;65563;45.970;12.680;2023-02-04T04:09:06;101664.47;;;1.78;84.01
76653;BME280;65563;45.970;12.680;2023-02-04T04:10:06;101665.91;;;1.82;83.97
76653;BME280;65563;45.970;12.680;2023-02-04T04:11:07;101675.84;;;1.89;83.99
76653;BME280;65563;45.970;12.680;2023-02-04T04:12:07;101680.00;;;2.05;83.37
76653;BME280;65563;45.970;12.680;2023-02-04T04:13:07;101690.47;;;2.05;83.36
76653;BME280;65563;45.970;12.680;2023-02-04T04:14:07;101681.38;;;1.98;83.93
76653;BME280;65563;45.970;12.680;2023-02-04T04:15:07;101669.88;;;2.00;83.43
76653;BME280;65563;45.970;12.680;2023-02-04T04:16:08;101657.41;;;1.91;83.37
76653;BME280;65563;45.970;12.680;2023-02-04T04:17:08;101650.31;;;1.80;83.59
76653;BME280;65563;45.970;12.680;2023-02-04T04:18:08;101659.41;;;1.87;84.69
76653;BME280;65563;45.970;12.680;2023-02-04T04:19:08;101672.50;;;1.87;84.49
76653;BME280;65563;45.970;12.680;2023-02-04T04:20:09;101672.91;;;1.94;83.98
76653;BME280;65563;45.970;12.680;2023-02-04T04:21:09;101686.06;;;2.05;84.50
76653;BME280;65563;45.970;12.680;2023-02-04T04:22:09;101690.97;;;2.10;84.15
76653;BME280;65563;45.970;12.680;2023-02-04T04:23:09;101682.06;;;2.12;84.22
76653;BME280;65563;45.970;12.680;2023-02-04T04:24:10;101667.91;;;2.15;83.40
76653;BME280;65563;45.970;12.680;2023-02-04T04:25:10;101651.78;;;2.08;83.80
76653;BME280;65563;45.970;12.680;2023-02-04T04:26:10;101643.88;;;1.97;83.78
76653;BME280;65563;45.970;12.680;2023-02-04T04:27:10;101659.00;;;1.81;84.07
76653;BME280;65563;45.970;12.680;2023-02-04T04:28:10;101653.84;;;1.92;83.65
76653;BME280;65563;45.970;12.680;2023-02-04T04:29:10;101664.22;;;1.94;83.74
76653;BME280;65563;45.970;12.680;2023-02-04T04:30:11;101658.22;;;2.04;83.75
76653;BME280;65563;45.970;12.680;2023-02-04T04:31:11;101664.28;;;2.05;83.99
76653;BME280;65563;45.970;12.680;2023-02-04T04:32:11;101661.09;;;2.12;84.31
76653;BME280;65563;45.970;12.680;2023-02-04T04:33:11;101656.91;;;2.10;84.82
76653;BME280;65563;45.970;12.680;2023-02-04T04:34:11;101651.44;;;2.13;84.14
76653;BME280;65563;45.970;12.680;2023-02-04T04:35:11;101648.91;;;2.00;83.96
76653;BME280;65563;45.970;12.680;2023-02-04T04:36:12;101649.53;;;2.04;84.02
76653;BME280;65563;45.970;12.680;2023-02-04T04:37:12;101660.13;;;2.13;84.09
76653;BME280;65563;45.970;12.680;2023-02-04T04:38:12;101658.59;;;2.11;83.41
76653;BME280;65563;45.970;12.680;2023-02-04T04:39:12;101665.94;;;2.06;83.99
76653;BME280;65563;45.970;12.680;2023-02-04T04:40:12;101664.50;;;2.02;83.49
76653;BME280;65563;45.970;12.680;2023-02-04T04:41:12;101647.59;;;2.06;83.96
76653;BME280;65563;45.970;12.680;2023-02-04T04:42:13;101635.50;;;1.92;84.14
76653;BME280;65563;45.970;12.680;2023-02-04T04:43:13;101625.84;;;1.92;84.03
76653;BME280;65563;45.970;12.680;2023-02-04T04:44:13;101638.94;;;1.92;83.61
76653;BME280;65563;45.970;12.680;2023-02-04T04:45:13;101639.25;;;2.01;83.75
76653;BME280;65563;45.970;12.680;2023-02-04T04:46:13;101643.94;;;2.08;83.88
76653;BME280;65563;45.970;12.680;2023-02-04T04:47:13;101653.41;;;1.98;84.05
76653;BME280;65563;45.970;12.680;2023-02-04T04:48:14;101652.13;;;2.04;83.57
76653;BME280;65563;45.970;12.680;2023-02-04T04:49:14;101640.25;;;2.11;83.89
76653;BME280;65563;45.970;12.680;2023-02-04T04:50:14;101640.34;;;2.09;83.74
76653;BME280;65563;45.970;12.680;2023-02-04T04:51:14;101638.13;;;1.92;83.93
76653;BME280;65563;45.970;12.680;2023-02-04T04:52:14;101635.69;;;2.02;83.91
76653;BME280;65563;45.970;12.680;2023-02-04T04:53:14;101643.13;;;1.95;84.25
76653;BME280;65563;45.970;12.680;2023-02-04T04:54:15;101642.94;;;1.98;84.31
76653;BME280;65563;45.970;12.680;2023-02-04T04:55:15;101647.50;;;2.07;84.02
76653;BME280;65563;45.970;12.680;2023-02-04T04:56:15;101647.81;;;2.03;83.79
76653;BME280;65563;45.970;12.680;2023-02-04T04:57:15;101635.28;;;1.95;83.72
76653;BME280;65563;45.970;12.680;2023-02-04T04:58:15;101623.56;;;1.88;84.31
76653;BME280;65563;45.970;12.680;2023-02-04T04:59:16;101612.66;;;1.94;84.12
76653;BME280;65563;45.970;12.680;2023-02-04T05:00:17;101603.03;;;1.95;83.89
76653;BME280;65563;45.970;12.680;2023-02-04T05:01:17;101608.69;;;1.88;84.20
76653;BME280;65563;45.970;12.680;2023-02-04T05:02:17;101638.03;;;1.94;83.85
76653;BME280;65563;45.970;12.680;2023-02-04T05:03:18;101650.91;;;1.97;84.43
76653;BME280;65563;45.970;12.680;2023-02-04T05:04:18;101676.69;;;1.90;84.03
76653;BME280;65563;45.970;12.680;2023-02-04T05:05:18;101673.63;;;1.96;84.13
76653;BME280;65563;45.970;12.680;2023-02-04T05:06:18;101658.84;;;1.95;84.53
76653;BME280;65563;45.970;12.680;2023-02-04T05:07:18;101637.63;;;1.87;84.47
76653;BME280;65563;45.970;12.680;2023-02-04T05:08:18;101613.66;;;1.80;84.82
76653;BME280;65563;45.970;12.680;2023-02-04T05:09:18;101613.06;;;1.64;85.24
76653;BME280;65563;45.970;12.680;2023-02-04T05:10:19;101615.38;;;1.69;85.62
76653;BME280;65563;45.970;12.680;2023-02-04T05:11:20;101635.66;;;1.78;85.19
76653;BME280;65563;45.970;12.680;2023-02-04T05:12:20;101657.22;;;1.81;84.91
76653;BME280;65563;45.970;12.680;2023-02-04T05:13:20;101669.75;;;1.89;84.93
76653;BME280;65563;45.970;12.680;2023-02-04T05:14:20;101678.78;;;1.85;85.26
76653;BME280;65563;45.970;12.680;2023-02-04T05:15:20;101662.44;;;1.94;84.59
76653;BME280;65563;45.970;12.680;2023-02-04T05:16:21;101649.16;;;1.84;84.52
76653;BME280;65563;45.970;12.680;2023-02-04T05:17:21;101629.47;;;1.79;85.32
76653;BME280;65563;45.970;12.680;2023-02-04T05:18:21;101626.91;;;1.66;85.25
76653;BME280;65563;45.970;12.680;2023-02-04T05:19:21;101638.09;;;1.68;85.03